sensor_id;sensor_type;location;lat;lon;timestamp;P1;durP1;ratioP1;P2;durP2;ratioP2
2225;SDS011;1119;48.288;8.726;2023-04-23T00:00:29;6.17;;;5.60;;
2225;SDS011;1119;48.288;8.726;2023-04-23T00:03:18;9.23;;;6.73;;
2225;SDS011;1119;48.288;8.726;2023-04-23T00:06:09;7.50;;;6.70;;
2225;SDS011;1119;48.288;8.726;2023-04-23T00:08:59;6.40;;;5.70;;
2225;SDS011;1119;48.288;8.726;2023-04-23T00:11:48;6.43;;;5.93;;
2225;SDS011;1119;48.288;8.726;2023-04-23T00:14:38;6.30;;;5.70;;
2225;SDS011;1119;48.288;8.726;2023-04-23T00:17:26;5.80;;;5.40;;
2225;SDS011;1119;48.288;8.726;2023-04-23T00:20:14;6.70;;;5.57;;
2225;SDS011;1119;48.288;8.726;2023-04-23T00:23:02;8.90;;;5.67;;
2225;SDS011;1119;48.288;8.726;2023-04-23T00:25:50;6.93;;;6.07;;
2225;SDS011;1119;48.288;8.726;2023-04-23T00:28:38;6.60;;;6.00;;
2225;SDS011;1119;48.288;8.726;2023-04-23T00:31:27;5.80;;;5.40;;
2225;SDS011;1119;48.288;8.726;2023-04-23T00:34:15;5.53;;;5.10;;
2225;SDS011;1119;48.288;8.726;2023-04-23T00:37:03;5.90;;;5.30;;
2225;SDS011;1119;48.288;8.726;2023-04-23T00:39:51;6.70;;;5.37;;
2225;SDS011;1119;48.288;8.726;2023-04-23T00:42:39;5.27;;;4.97;;
2225;SDS011;1119;48.288;8.726;2023-04-23T00:45:29;5.67;;;5.27;;
2225;SDS011;1119;48.288;8.726;2023-04-23T00:48:18;6.07;;;5.47;;
2225;SDS011;1119;48.288;8.726;2023-04-23T00:51:06;5.60;;;5.30;;
2225;SDS011;1119;48.288;8.726;2023-04-23T00:53:57;6.10;;;5.50;;
2225;SDS011;1119;48.288;8.726;2023-04-23T00:56:45;5.90;;;5.43;;
2225;SDS011;1119;48.288;8.726;2023-04-23T00:59:33;5.20;;;4.77;;
2225;SDS011;1119;48.288;8.726;2023-04-23T01:02:21;5.67;;;5.30;;
2225;SDS011;1119;48.288;8.726;2023-04-23T01:05:12;5.13;;;4.83;;
2225;SDS011;1119;48.288;8.726;2023-04-23T01:08:02;6.30;;;5.77;;
2225;SDS011;1119;48.288;8.726;2023-04-23T01:10:50;5.10;;;4.70;;
2225;SDS011;1119;48.288;8.726;2023-04-23T01:13:39;5.70;;;5.20;;
2225;SDS011;1119;48.288;8.726;2023-04-23T01:16:28;9.37;;;4.87;;
2225;SDS011;1119;48.288;8.726;2023-04-23T01:19:16;4.00;;;3.70;;
2225;SDS011;1119;48.288;8.726;2023-04-23T01:22:09;5.50;;;5.10;;
2225;SDS011;1119;48.288;8.726;2023-04-23T01:24:58;5.00;;;4.70;;
2225;SDS011;1119;48.288;8.726;2023-04-23T01:27:46;4.80;;;4.50;;
2225;SDS011;1119;48.288;8.726;2023-04-23T01:30:35;4.53;;;4.23;;
2225;SDS011;1119;48.288;8.726;2023-04-23T01:33:23;4.57;;;4.37;;
2225;SDS011;1119;48.288;8.726;2023-04-23T01:36:12;5.10;;;4.80;;
2225;SDS011;1119;48.288;8.726;2023-04-23T01:39:01;4.87;;;4.57;;
2225;SDS011;1119;48.288;8.726;2023-04-23T01:41:49;4.83;;;4.47;;
2225;SDS011;1119;48.288;8.726;2023-04-23T01:44:37;4.33;;;4.10;;
2225;SDS011;1119;48.288;8.726;2023-04-23T01:47:26;4.63;;;4.40;;
2225;SDS011;1119;48.288;8.726;2023-04-23T01:50:14;3.90;;;3.77;;
2225;SDS011;1119;48.288;8.726;2023-04-23T01:53:01;4.07;;;3.87;;
2225;SDS011;1119;48.288;8.726;2023-04-23T01:55:50;4.00;;;3.70;;
2225;SDS011;1119;48.288;8.726;2023-04-23T01:58:40;4.40;;;4.10;;
2225;SDS011;1119;48.288;8.726;2023-04-23T02:01:39;5.33;;;4.93;;
2225;SDS011;1119;48.288;8.726;2023-04-23T02:04:29;5.10;;;4.80;;
2225;SDS011;1119;48.288;8.726;2023-04-23T02:07:18;6.03;;;4.57;;
2225;SDS011;1119;48.288;8.726;2023-04-23T02:10:06;4.20;;;4.00;;
2225;SDS011;1119;48.288;8.726;2023-04-23T02:12:57;5.53;;;5.13;;
2225;SDS011;1119;48.288;8.726;2023-04-23T02:15:46;4.47;;;4.07;;
2225;SDS011;1119;48.288;8.726;2023-04-23T02:18:34;4.17;;;3.97;;
2225;SDS011;1119;48.288;8.726;2023-04-23T02:21:23;4.73;;;4.43;;
2225;SDS011;1119;48.288;8.726;2023-04-23T02:24:12;4.87;;;4.53;;
2225;SDS011;1119;48.288;8.726;2023-04-23T02:27:00;4.57;;;4.30;;
2225;SDS011;1119;48.288;8.726;2023-04-23T02:29:49;5.10;;;4.80;;
2225;SDS011;1119;48.288;8.726;2023-04-23T02:32:38;4.60;;;4.40;;
2225;SDS011;1119;48.288;8.726;2023-04-23T02:35:27;4.87;;;4.57;;
2225;SDS011;1119;48.288;8.726;2023-04-23T02:38:15;4.30;;;4.10;;
2225;SDS011;1119;48.288;8.726;2023-04-23T02:41:03;4.40;;;4.20;;
2225;SDS011;1119;48.288;8.726;2023-04-23T02:43:51;4.20;;;4.00;;
2225;SDS011;1119;48.288;8.726;2023-04-23T02:46:40;3.70;;;3.50;;
2225;SDS011;1119;48.288;8.726;2023-04-23T02:49:27;4.33;;;4.13;;
2225;SDS011;1119;48.288;8.726;2023-04-23T02:52:15;4.40;;;4.20;;
2225;SDS011;1119;48.288;8.726;2023-04-23T02:55:03;5.73;;;4.57;;
2225;SDS011;1119;48.288;8.726;2023-04-23T02:57:53;4.30;;;4.10;;
2225;SDS011;1119;48.288;8.726;2023-04-23T03:00:41;4.53;;;4.27;;
2225;SDS011;1119;48.288;8.726;2023-04-23T03:03:30;4.43;;;4.13;;
2225;SDS011;1119;48.288;8.726;2023-04-23T03:06:21;4.17;;;3.80;;
2225;SDS011;1119;48.288;8.726;2023-04-23T03:09:09;4.33;;;4.13;;
2225;SDS011;1119;48.288;8.726;2023-04-23T03:11:57;4.27;;;3.97;;
2225;SDS011;1119;48.288;8.726;2023-04-23T03:14:45;3.97;;;3.77;;
2225;SDS011;1119;48.288;8.726;2023-04-23T03:17:33;4.20;;;3.90;;
2225;SDS011;1119;48.288;8.726;2023-04-23T03:20:23;4.10;;;3.90;;
2225;SDS011;1119;48.288;8.726;2023-04-23T03:23:11;4.17;;;3.93;;
2225;SDS011;1119;48.288;8.726;2023-04-23T03:25:59;4.70;;;4.43;;
2225;SDS011;1119;48.288;8.726;2023-04-23T03:28:47;4.70;;;4.40;;
2225;SDS011;1119;48.288;8.726;2023-04-23T03:31:34;4.50;;;4.30;;
2225;SDS011;1119;48.288;8.726;2023-04-23T03:34:23;4.90;;;4.60;;
2225;SDS011;1119;48.288;8.726;2023-04-23T03:37:13;4.33;;;4.13;;
2225;SDS011;1119;48.288;8.726;2023-04-23T03:40:01;4.30;;;4.10;;
2225;SDS011;1119;48.288;8.726;2023-04-23T03:42:54;3.30;;;3.13;;
2225;SDS011;1119;48.288;8.726;2023-04-23T03:45:49;4.20;;;4.00;;
2225;SDS011;1119;48.288;8.726;2023-04-23T03:48:37;3.93;;;3.73;;
2225;SDS011;1119;48.288;8.726;2023-04-23T03:51:30;4.03;;;3.83;;
2225;SDS011;1119;48.288;8.726;2023-04-23T03:54:19;3.83;;;3.63;;
2225;SDS011;1119;48.288;8.726;2023-04-23T03:57:38;4.50;;;4.20;;
2225;SDS011;1119;48.288;8.726;2023-04-23T04:00:38;5.30;;;4.60;;
2225;SDS011;1119;48.288;8.726;2023-04-23T04:03:26;4.00;;;3.80;;
2225;SDS011;1119;48.288;8.726;2023-04-23T04:06:15;3.80;;;3.60;;
2225;SDS011;1119;48.288;8.726;2023-04-23T04:09:02;3.40;;;3.20;;
2225;SDS011;1119;48.288;8.726;2023-04-23T04:11:54;3.40;;;3.20;;
2225;SDS011;1119;48.288;8.726;2023-04-23T04:14:42;3.73;;;3.53;;
2225;SDS011;1119;48.288;8.726;2023-04-23T04:17:29;4.23;;;3.93;;
2225;SDS011;1119;48.288;8.726;2023-04-23T04:20:17;3.60;;;3.40;;
2225;SDS011;1119;48.288;8.726;2023-04-23T04:23:05;3.60;;;3.40;;
2225;SDS011;1119;48.288;8.726;2023-04-23T04:25:53;4.43;;;3.40;;
2225;SDS011;1119;48.288;8.726;2023-04-23T04:28:43;4.30;;;4.00;;
2225;SDS011;1119;48.288;8.726;2023-04-23T04:31:31;4.23;;;3.83;;
2225;SDS011;1119;48.288;8.726;2023-04-23T04:34:19;4.40;;;4.10;;
2225;SDS011;1119;48.288;8.726;2023-04-23T04:37:07;4.40;;;4.10;;
2225;SDS011;1119;48.288;8.726;2023-04-23T04:39:56;4.00;;;3.80;;
2225;SDS011;1119;48.288;8.726;2023-04-23T04:42:46;4.37;;;4.10;;
2225;SDS011;1119;48.288;8.726;2023-04-23T04:45:34;4.13;;;3.93;;
2225;SDS011;1119;48.288;8.726;2023-04-23T04:48:22;4.23;;;3.97;;
2225;SDS011;1119;48.288;8.726;2023-04-23T04:51:10;4.77;;;4.07;;
2225;SDS011;1119;48.288;8.726;2023-04-23T04:53:58;4.50;;;4.20;;
2225;SDS011;1119;48.288;8.726;2023-04-23T04:56:46;4.67;;;4.37;;
2225;SDS011;1119;48.288;8.726;2023-04-23T04:59:33;4.70;;;4.37;;
2225;SDS011;1119;48.288;8.726;2023-04-23T05:02:23;4.50;;;4.17;;
2225;SDS011;1119;48.288;8.726;2023-04-23T05:05:11;4.70;;;4.30;;
2225;SDS011;1119;48.288;8.726;2023-04-23T05:07:59;4.53;;;4.13;;
2225;SDS011;1119;48.288;8.726;2023-04-23T05:10:47;3.50;;;3.30;;
2225;SDS011;1119;48.288;8.726;2023-04-23T05:13:35;3.90;;;3.60;;
2225;SDS011;1119;48.288;8.726;2023-04-23T05:16:23;3.70;;;3.47;;
2225;SDS011;1119;48.288;8.726;2023-04-23T05:19:12;4.27;;;3.97;;
2225;SDS011;1119;48.288;8.726;2023-04-23T05:22:00;4.13;;;3.83;;
2225;SDS011;1119;48.288;8.726;2023-04-23T05:24:48;4.67;;;4.33;;
2225;SDS011;1119;48.288;8.726;2023-04-23T05:30:46;7.03;;;5.90;;
2225;SDS011;1119;48.288;8.726;2023-04-23T05:33:33;4.87;;;4.40;;
2225;SDS011;1119;48.288;8.726;2023-04-23T05:36:22;4.50;;;4.10;;
2225;SDS011;1119;48.288;8.726;2023-04-23T05:39:10;4.43;;;4.00;;
2225;SDS011;1119;48.288;8.726;2023-04-23T05:41:58;5.47;;;4.93;;
2225;SDS011;1119;48.288;8.726;2023-04-23T05:44:45;5.67;;;4.80;;
2225;SDS011;1119;48.288;8.726;2023-04-23T05:47:33;4.90;;;4.40;;
2225;SDS011;1119;48.288;8.726;2023-04-23T05:50:21;4.60;;;4.30;;
2225;SDS011;1119;48.288;8.726;2023-04-23T05:53:10;5.97;;;5.37;;
2225;SDS011;1119;48.288;8.726;2023-04-23T05:55:57;8.50;;;6.60;;
2225;SDS011;1119;48.288;8.726;2023-04-23T05:58:45;4.57;;;4.20;;
2225;SDS011;1119;48.288;8.726;2023-04-23T06:01:32;5.20;;;4.70;;
2225;SDS011;1119;48.288;8.726;2023-04-23T06:04:20;4.80;;;4.30;;
2225;SDS011;1119;48.288;8.726;2023-04-23T06:07:08;5.17;;;4.67;;
2225;SDS011;1119;48.288;8.726;2023-04-23T06:09:58;6.40;;;4.97;;
2225;SDS011;1119;48.288;8.726;2023-04-23T06:12:46;5.10;;;4.60;;
2225;SDS011;1119;48.288;8.726;2023-04-23T06:15:33;5.70;;;5.10;;
2225;SDS011;1119;48.288;8.726;2023-04-23T06:18:21;6.73;;;5.73;;
2225;SDS011;1119;48.288;8.726;2023-04-23T06:21:09;5.63;;;5.20;;
2225;SDS011;1119;48.288;8.726;2023-04-23T06:23:53;8.23;;;6.37;;
2225;SDS011;1119;48.288;8.726;2023-04-23T06:26:42;8.33;;;6.27;;
2225;SDS011;1119;48.288;8.726;2023-04-23T06:29:34;7.90;;;5.43;;
2225;SDS011;1119;48.288;8.726;2023-04-23T06:32:23;8.67;;;5.40;;
2225;SDS011;1119;48.288;8.726;2023-04-23T06:35:13;9.10;;;6.40;;
2225;SDS011;1119;48.288;8.726;2023-04-23T06:38:05;5.40;;;4.90;;
2225;SDS011;1119;48.288;8.726;2023-04-23T06:40:52;6.37;;;5.40;;
2225;SDS011;1119;48.288;8.726;2023-04-23T06:43:42;9.30;;;6.83;;
2225;SDS011;1119;48.288;8.726;2023-04-23T06:46:49;11.90;;;7.27;;
2225;SDS011;1119;48.288;8.726;2023-04-23T06:49:36;10.67;;;7.13;;
2225;SDS011;1119;48.288;8.726;2023-04-23T06:52:25;11.10;;;7.23;;
2225;SDS011;1119;48.288;8.726;2023-04-23T06:55:13;14.50;;;7.57;;
2225;SDS011;1119;48.288;8.726;2023-04-23T06:58:01;11.27;;;8.23;;
2225;SDS011;1119;48.288;8.726;2023-04-23T07:00:50;8.60;;;7.30;;
2225;SDS011;1119;48.288;8.726;2023-04-23T07:03:37;11.20;;;8.50;;
2225;SDS011;1119;48.288;8.726;2023-04-23T07:06:28;11.10;;;8.20;;
2225;SDS011;1119;48.288;8.726;2023-04-23T07:09:18;12.40;;;8.07;;
2225;SDS011;1119;48.288;8.726;2023-04-23T07:12:06;11.07;;;8.40;;
2225;SDS011;1119;48.288;8.726;2023-04-23T07:14:54;12.80;;;9.37;;
2225;SDS011;1119;48.288;8.726;2023-04-23T07:17:43;11.10;;;9.90;;
2225;SDS011;1119;48.288;8.726;2023-04-23T07:20:31;8.70;;;6.63;;
2225;SDS011;1119;48.288;8.726;2023-04-23T07:23:19;7.77;;;6.93;;
2225;SDS011;1119;48.288;8.726;2023-04-23T07:26:07;8.33;;;6.37;;
2225;SDS011;1119;48.288;8.726;2023-04-23T07:28:54;7.03;;;6.33;;
2225;SDS011;1119;48.288;8.726;2023-04-23T07:31:42;9.17;;;8.10;;
2225;SDS011;1119;48.288;8.726;2023-04-23T07:34:32;16.47;;;11.63;;
2225;SDS011;1119;48.288;8.726;2023-04-23T07:37:21;9.07;;;8.20;;
2225;SDS011;1119;48.288;8.726;2023-04-23T07:40:09;10.67;;;8.10;;
2225;SDS011;1119;48.288;8.726;2023-04-23T07:42:57;6.47;;;5.97;;
2225;SDS011;1119;48.288;8.726;2023-04-23T07:45:45;5.70;;;5.20;;
2225;SDS011;1119;48.288;8.726;2023-04-23T07:48:32;6.93;;;5.87;;
2225;SDS011;1119;48.288;8.726;2023-04-23T07:51:21;5.27;;;4.80;;
2225;SDS011;1119;48.288;8.726;2023-04-23T07:54:11;5.60;;;5.10;;
2225;SDS011;1119;48.288;8.726;2023-04-23T07:56:59;6.13;;;5.53;;
2225;SDS011;1119;48.288;8.726;2023-04-23T07:59:47;5.60;;;5.10;;
2225;SDS011;1119;48.288;8.726;2023-04-23T08:02:35;10.20;;;9.13;;
2225;SDS011;1119;48.288;8.726;2023-04-23T08:05:23;5.43;;;5.03;;
2225;SDS011;1119;48.288;8.726;2023-04-23T08:08:12;4.43;;;4.13;;
2225;SDS011;1119;48.288;8.726;2023-04-23T08:11:00;4.20;;;3.97;;
2225;SDS011;1119;48.288;8.726;2023-04-23T08:13:48;3.93;;;3.73;;
2225;SDS011;1119;48.288;8.726;2023-04-23T08:16:35;4.70;;;4.30;;
2225;SDS011;1119;48.288;8.726;2023-04-23T08:19:23;4.27;;;3.90;;
2225;SDS011;1119;48.288;8.726;2023-04-23T08:22:16;4.37;;;3.90;;
2225;SDS011;1119;48.288;8.726;2023-04-23T08:25:06;5.80;;;5.30;;
2225;SDS011;1119;48.288;8.726;2023-04-23T08:27:55;5.77;;;5.10;;
2225;SDS011;1119;48.288;8.726;2023-04-23T08:30:45;5.97;;;5.37;;
2225;SDS011;1119;48.288;8.726;2023-04-23T08:33:33;6.60;;;6.00;;
2225;SDS011;1119;48.288;8.726;2023-04-23T08:36:21;5.90;;;5.50;;
2225;SDS011;1119;48.288;8.726;2023-04-23T08:39:09;5.00;;;4.67;;
2225;SDS011;1119;48.288;8.726;2023-04-23T08:41:59;5.37;;;4.97;;
2225;SDS011;1119;48.288;8.726;2023-04-23T08:44:55;6.30;;;5.80;;
2225;SDS011;1119;48.288;8.726;2023-04-23T08:47:43;5.70;;;5.30;;
2225;SDS011;1119;48.288;8.726;2023-04-23T08:50:31;5.37;;;4.97;;
2225;SDS011;1119;48.288;8.726;2023-04-23T08:53:19;4.50;;;4.20;;
2225;SDS011;1119;48.288;8.726;2023-04-23T08:56:12;4.97;;;4.67;;
2225;SDS011;1119;48.288;8.726;2023-04-23T08:59:02;5.10;;;4.80;;
2225;SDS011;1119;48.288;8.726;2023-04-23T09:01:50;5.00;;;4.60;;
2225;SDS011;1119;48.288;8.726;2023-04-23T09:04:38;4.60;;;4.20;;
2225;SDS011;1119;48.288;8.726;2023-04-23T09:07:27;5.30;;;4.90;;
2225;SDS011;1119;48.288;8.726;2023-04-23T09:10:14;5.47;;;5.07;;
2225;SDS011;1119;48.288;8.726;2023-04-23T09:13:02;5.37;;;4.97;;
2225;SDS011;1119;48.288;8.726;2023-04-23T09:15:51;4.87;;;4.20;;
2225;SDS011;1119;48.288;8.726;2023-04-23T09:18:39;4.60;;;4.30;;
2225;SDS011;1119;48.288;8.726;2023-04-23T09:21:28;5.77;;;5.27;;
2225;SDS011;1119;48.288;8.726;2023-04-23T09:24:16;4.87;;;4.37;;
2225;SDS011;1119;48.288;8.726;2023-04-23T09:27:04;7.73;;;4.20;;
2225;SDS011;1119;48.288;8.726;2023-04-23T09:29:51;4.87;;;4.43;;
2225;SDS011;1119;48.288;8.726;2023-04-23T09:32:44;6.70;;;6.03;;
2225;SDS011;1119;48.288;8.726;2023-04-23T09:35:32;5.70;;;5.17;;
2225;SDS011;1119;48.288;8.726;2023-04-23T09:38:21;5.30;;;4.87;;
2225;SDS011;1119;48.288;8.726;2023-04-23T09:41:19;5.80;;;4.50;;
2225;SDS011;1119;48.288;8.726;2023-04-23T09:44:07;4.90;;;4.50;;
2225;SDS011;1119;48.288;8.726;2023-04-23T09:46:57;4.97;;;4.57;;
2225;SDS011;1119;48.288;8.726;2023-04-23T09:49:55;4.97;;;4.57;;
2225;SDS011;1119;48.288;8.726;2023-04-23T09:52:43;4.97;;;4.47;;
2225;SDS011;1119;48.288;8.726;2023-04-23T09:55:32;5.03;;;4.57;;
2225;SDS011;1119;48.288;8.726;2023-04-23T09:58:23;4.47;;;4.07;;
2225;SDS011;1119;48.288;8.726;2023-04-23T10:01:11;5.47;;;4.83;;
2225;SDS011;1119;48.288;8.726;2023-04-23T10:03:59;5.57;;;5.07;;
2225;SDS011;1119;48.288;8.726;2023-04-23T10:06:52;6.20;;;4.97;;
2225;SDS011;1119;48.288;8.726;2023-04-23T10:09:40;5.10;;;4.60;;
2225;SDS011;1119;48.288;8.726;2023-04-23T10:12:28;5.40;;;4.80;;
2225;SDS011;1119;48.288;8.726;2023-04-23T10:15:16;5.07;;;4.60;;
2225;SDS011;1119;48.288;8.726;2023-04-23T10:18:04;6.07;;;5.47;;
2225;SDS011;1119;48.288;8.726;2023-04-23T10:20:53;4.43;;;4.03;;
2225;SDS011;1119;48.288;8.726;2023-04-23T10:23:43;5.03;;;4.60;;
2225;SDS011;1119;48.288;8.726;2023-04-23T10:26:33;4.57;;;4.27;;
2225;SDS011;1119;48.288;8.726;2023-04-23T10:29:25;4.70;;;4.30;;
2225;SDS011;1119;48.288;8.726;2023-04-23T10:32:14;4.73;;;4.33;;
2225;SDS011;1119;48.288;8.726;2023-04-23T10:35:03;6.23;;;5.23;;
2225;SDS011;1119;48.288;8.726;2023-04-23T10:37:52;4.20;;;3.87;;
2225;SDS011;1119;48.288;8.726;2023-04-23T10:40:42;5.07;;;4.40;;
2225;SDS011;1119;48.288;8.726;2023-04-23T10:43:33;5.90;;;5.40;;
2225;SDS011;1119;48.288;8.726;2023-04-23T10:46:27;5.97;;;5.37;;
2225;SDS011;1119;48.288;8.726;2023-04-23T10:49:15;6.43;;;5.40;;
2225;SDS011;1119;48.288;8.726;2023-04-23T10:52:06;6.23;;;4.97;;
2225;SDS011;1119;48.288;8.726;2023-04-23T10:54:58;6.10;;;5.30;;
2225;SDS011;1119;48.288;8.726;2023-04-23T10:58:01;9.23;;;6.60;;
2225;SDS011;1119;48.288;8.726;2023-04-23T11:00:50;5.47;;;4.97;;
2225;SDS011;1119;48.288;8.726;2023-04-23T11:03:38;6.07;;;5.37;;
2225;SDS011;1119;48.288;8.726;2023-04-23T11:09:38;6.30;;;5.33;;
2225;SDS011;1119;48.288;8.726;2023-04-23T11:12:31;4.83;;;4.40;;
2225;SDS011;1119;48.288;8.726;2023-04-23T11:15:21;5.13;;;4.63;;
2225;SDS011;1119;48.288;8.726;2023-04-23T11:18:09;5.77;;;4.87;;
2225;SDS011;1119;48.288;8.726;2023-04-23T11:20:58;6.67;;;5.13;;
2225;SDS011;1119;48.288;8.726;2023-04-23T11:23:45;6.13;;;5.53;;
2225;SDS011;1119;48.288;8.726;2023-04-23T11:26:33;4.37;;;4.03;;
2225;SDS011;1119;48.288;8.726;2023-04-23T11:29:22;3.73;;;3.53;;
2225;SDS011;1119;48.288;8.726;2023-04-23T11:32:16;3.80;;;3.60;;
2225;SDS011;1119;48.288;8.726;2023-04-23T11:35:04;5.53;;;4.50;;
2225;SDS011;1119;48.288;8.726;2023-04-23T11:37:56;4.50;;;4.20;;
2225;SDS011;1119;48.288;8.726;2023-04-23T11:40:44;4.43;;;4.13;;
2225;SDS011;1119;48.288;8.726;2023-04-23T11:43:33;4.17;;;3.87;;
2225;SDS011;1119;48.288;8.726;2023-04-23T11:46:22;4.00;;;3.80;;
2225;SDS011;1119;48.288;8.726;2023-04-23T11:49:11;4.27;;;4.07;;
2225;SDS011;1119;48.288;8.726;2023-04-23T11:51:59;4.80;;;4.60;;
2225;SDS011;1119;48.288;8.726;2023-04-23T11:54:47;4.90;;;4.40;;
2225;SDS011;1119;48.288;8.726;2023-04-23T11:57:35;5.13;;;4.83;;
2225;SDS011;1119;48.288;8.726;2023-04-23T12:00:24;4.40;;;4.20;;
2225;SDS011;1119;48.288;8.726;2023-04-23T12:03:12;3.80;;;3.70;;
2225;SDS011;1119;48.288;8.726;2023-04-23T12:06:02;4.97;;;4.67;;
2225;SDS011;1119;48.288;8.726;2023-04-23T12:08:50;4.40;;;4.20;;
2225;SDS011;1119;48.288;8.726;2023-04-23T12:11:38;5.10;;;4.80;;
2225;SDS011;1119;48.288;8.726;2023-04-23T12:14:27;3.90;;;3.70;;
2225;SDS011;1119;48.288;8.726;2023-04-23T12:17:16;4.50;;;4.27;;
2225;SDS011;1119;48.288;8.726;2023-04-23T12:20:03;4.53;;;4.33;;
2225;SDS011;1119;48.288;8.726;2023-04-23T12:22:55;5.77;;;5.37;;
2225;SDS011;1119;48.288;8.726;2023-04-23T12:25:51;4.37;;;4.00;;
2225;SDS011;1119;48.288;8.726;2023-04-23T12:28:44;4.73;;;4.43;;
2225;SDS011;1119;48.288;8.726;2023-04-23T12:31:33;5.20;;;4.80;;
2225;SDS011;1119;48.288;8.726;2023-04-23T12:34:23;4.73;;;4.43;;
2225;SDS011;1119;48.288;8.726;2023-04-23T12:37:11;6.07;;;5.63;;
2225;SDS011;1119;48.288;8.726;2023-04-23T12:40:02;7.40;;;6.80;;
2225;SDS011;1119;48.288;8.726;2023-04-23T12:42:52;5.93;;;5.37;;
2225;SDS011;1119;48.288;8.726;2023-04-23T12:45:39;8.00;;;7.30;;
2225;SDS011;1119;48.288;8.726;2023-04-23T12:48:27;7.63;;;7.10;;
2225;SDS011;1119;48.288;8.726;2023-04-23T12:51:14;7.60;;;7.00;;
2225;SDS011;1119;48.288;8.726;2023-04-23T12:54:02;8.53;;;6.83;;
2225;SDS011;1119;48.288;8.726;2023-04-23T12:56:51;7.53;;;6.90;;
2225;SDS011;1119;48.288;8.726;2023-04-23T12:59:39;6.10;;;5.80;;
2225;SDS011;1119;48.288;8.726;2023-04-23T13:02:27;6.50;;;6.10;;
2225;SDS011;1119;48.288;8.726;2023-04-23T13:05:14;7.50;;;7.00;;
2225;SDS011;1119;48.288;8.726;2023-04-23T13:08:02;6.97;;;6.57;;
2225;SDS011;1119;48.288;8.726;2023-04-23T13:10:50;6.43;;;6.03;;
2225;SDS011;1119;48.288;8.726;2023-04-23T13:13:39;6.20;;;5.90;;
2225;SDS011;1119;48.288;8.726;2023-04-23T13:16:26;7.23;;;6.50;;
2225;SDS011;1119;48.288;8.726;2023-04-23T13:19:15;6.33;;;5.93;;
2225;SDS011;1119;48.288;8.726;2023-04-23T13:22:03;6.60;;;6.20;;
2225;SDS011;1119;48.288;8.726;2023-04-23T13:24:50;7.00;;;6.50;;
2225;SDS011;1119;48.288;8.726;2023-04-23T13:27:38;6.23;;;5.83;;
2225;SDS011;1119;48.288;8.726;2023-04-23T13:30:27;6.87;;;6.43;;
2225;SDS011;1119;48.288;8.726;2023-04-23T13:33:14;5.90;;;5.60;;
2225;SDS011;1119;48.288;8.726;2023-04-23T13:36:02;5.63;;;5.30;;
2225;SDS011;1119;48.288;8.726;2023-04-23T13:38:51;6.97;;;6.47;;
2225;SDS011;1119;48.288;8.726;2023-04-23T13:41:39;7.20;;;6.70;;
2225;SDS011;1119;48.288;8.726;2023-04-23T13:44:26;5.70;;;5.17;;
2225;SDS011;1119;48.288;8.726;2023-04-23T13:47:15;6.23;;;5.93;;
2225;SDS011;1119;48.288;8.726;2023-04-23T13:50:03;5.93;;;5.53;;
2225;SDS011;1119;48.288;8.726;2023-04-23T13:52:52;7.10;;;6.53;;
2225;SDS011;1119;48.288;8.726;2023-04-23T13:55:40;7.60;;;6.97;;
2225;SDS011;1119;48.288;8.726;2023-04-23T13:58:28;5.80;;;5.40;;
2225;SDS011;1119;48.288;8.726;2023-04-23T14:01:15;5.33;;;5.03;;
2225;SDS011;1119;48.288;8.726;2023-04-23T14:04:05;4.93;;;4.57;;
2225;SDS011;1119;48.288;8.726;2023-04-23T14:06:52;6.17;;;5.67;;
2225;SDS011;1119;48.288;8.726;2023-04-23T14:09:40;5.73;;;5.23;;
2225;SDS011;1119;48.288;8.726;2023-04-23T14:12:29;5.30;;;5.00;;
2225;SDS011;1119;48.288;8.726;2023-04-23T14:15:17;5.97;;;5.47;;
2225;SDS011;1119;48.288;8.726;2023-04-23T14:18:05;5.93;;;5.63;;
2225;SDS011;1119;48.288;8.726;2023-04-23T14:20:54;5.33;;;4.93;;
2225;SDS011;1119;48.288;8.726;2023-04-23T14:23:42;5.17;;;4.77;;
2225;SDS011;1119;48.288;8.726;2023-04-23T14:26:36;4.70;;;4.30;;
2225;SDS011;1119;48.288;8.726;2023-04-23T14:29:28;6.63;;;6.13;;
2225;SDS011;1119;48.288;8.726;2023-04-23T14:32:22;5.27;;;4.87;;
2225;SDS011;1119;48.288;8.726;2023-04-23T14:35:11;5.60;;;5.20;;
2225;SDS011;1119;48.288;8.726;2023-04-23T14:38:00;6.80;;;5.70;;
2225;SDS011;1119;48.288;8.726;2023-04-23T14:40:48;5.53;;;5.13;;
2225;SDS011;1119;48.288;8.726;2023-04-23T14:43:36;7.03;;;6.43;;
2225;SDS011;1119;48.288;8.726;2023-04-23T14:46:24;6.00;;;5.50;;
2225;SDS011;1119;48.288;8.726;2023-04-23T14:49:12;5.20;;;4.80;;
2225;SDS011;1119;48.288;8.726;2023-04-23T14:52:00;4.17;;;3.97;;
2225;SDS011;1119;48.288;8.726;2023-04-23T14:54:50;5.70;;;5.40;;
2225;SDS011;1119;48.288;8.726;2023-04-23T14:57:40;6.93;;;3.60;;
2225;SDS011;1119;48.288;8.726;2023-04-23T15:00:28;4.70;;;4.40;;
2225;SDS011;1119;48.288;8.726;2023-04-23T15:03:16;5.50;;;5.10;;
2225;SDS011;1119;48.288;8.726;2023-04-23T15:06:04;6.67;;;5.13;;
2225;SDS011;1119;48.288;8.726;2023-04-23T15:08:53;5.23;;;4.80;;
2225;SDS011;1119;48.288;8.726;2023-04-23T15:11:42;4.67;;;4.37;;
2225;SDS011;1119;48.288;8.726;2023-04-23T15:14:30;3.93;;;3.73;;
2225;SDS011;1119;48.288;8.726;2023-04-23T15:17:22;4.50;;;4.20;;
2225;SDS011;1119;48.288;8.726;2023-04-23T15:20:10;4.87;;;4.47;;
2225;SDS011;1119;48.288;8.726;2023-04-23T15:22:58;5.83;;;4.60;;
2225;SDS011;1119;48.288;8.726;2023-04-23T15:25:46;4.97;;;4.67;;
2225;SDS011;1119;48.288;8.726;2023-04-23T15:28:36;5.23;;;4.83;;
2225;SDS011;1119;48.288;8.726;2023-04-23T15:31:23;5.27;;;4.83;;
2225;SDS011;1119;48.288;8.726;2023-04-23T15:34:11;4.80;;;4.50;;
2225;SDS011;1119;48.288;8.726;2023-04-23T15:36:59;6.00;;;4.97;;
2225;SDS011;1119;48.288;8.726;2023-04-23T15:39:47;9.67;;;4.40;;
2225;SDS011;1119;48.288;8.726;2023-04-23T15:42:35;5.07;;;4.70;;
2225;SDS011;1119;48.288;8.726;2023-04-23T15:45:27;4.23;;;3.80;;
2225;SDS011;1119;48.288;8.726;2023-04-23T15:48:15;4.07;;;3.77;;
2225;SDS011;1119;48.288;8.726;2023-04-23T15:51:03;5.30;;;4.33;;
2225;SDS011;1119;48.288;8.726;2023-04-23T15:53:51;3.97;;;3.67;;
2225;SDS011;1119;48.288;8.726;2023-04-23T15:56:39;5.43;;;5.00;;
2225;SDS011;1119;48.288;8.726;2023-04-23T15:59:27;3.80;;;3.60;;
2225;SDS011;1119;48.288;8.726;2023-04-23T16:02:16;3.20;;;3.07;;
2225;SDS011;1119;48.288;8.726;2023-04-23T16:05:04;4.53;;;4.20;;
2225;SDS011;1119;48.288;8.726;2023-04-23T16:07:53;3.70;;;3.50;;
2225;SDS011;1119;48.288;8.726;2023-04-23T16:10:40;4.60;;;3.53;;
2225;SDS011;1119;48.288;8.726;2023-04-23T16:13:28;4.20;;;3.90;;
2225;SDS011;1119;48.288;8.726;2023-04-23T16:16:16;3.70;;;3.50;;
2225;SDS011;1119;48.288;8.726;2023-04-23T16:19:05;5.27;;;4.87;;
2225;SDS011;1119;48.288;8.726;2023-04-23T16:25:01;4.93;;;4.53;;
2225;SDS011;1119;48.288;8.726;2023-04-23T16:27:50;5.87;;;5.43;;
2225;SDS011;1119;48.288;8.726;2023-04-23T16:30:38;5.97;;;5.40;;
2225;SDS011;1119;48.288;8.726;2023-04-23T16:33:26;5.70;;;5.30;;
2225;SDS011;1119;48.288;8.726;2023-04-23T16:36:16;5.67;;;5.23;;
2225;SDS011;1119;48.288;8.726;2023-04-23T16:39:04;4.47;;;4.07;;
2225;SDS011;1119;48.288;8.726;2023-04-23T16:41:52;5.20;;;4.90;;
2225;SDS011;1119;48.288;8.726;2023-04-23T16:44:39;4.80;;;4.50;;
2225;SDS011;1119;48.288;8.726;2023-04-23T16:47:27;4.57;;;4.27;;
2225;SDS011;1119;48.288;8.726;2023-04-23T16:50:15;5.00;;;4.60;;
2225;SDS011;1119;48.288;8.726;2023-04-23T16:53:04;7.23;;;4.90;;
2225;SDS011;1119;48.288;8.726;2023-04-23T16:55:52;5.27;;;4.87;;
2225;SDS011;1119;48.288;8.726;2023-04-23T16:58:40;5.20;;;4.70;;
2225;SDS011;1119;48.288;8.726;2023-04-23T17:01:27;6.50;;;6.00;;
2225;SDS011;1119;48.288;8.726;2023-04-23T17:04:15;5.57;;;4.93;;
2225;SDS011;1119;48.288;8.726;2023-04-23T17:07:03;4.20;;;4.00;;
2225;SDS011;1119;48.288;8.726;2023-04-23T17:09:52;4.67;;;4.37;;
2225;SDS011;1119;48.288;8.726;2023-04-23T17:12:40;5.93;;;4.57;;
2225;SDS011;1119;48.288;8.726;2023-04-23T17:15:28;5.50;;;5.13;;
2225;SDS011;1119;48.288;8.726;2023-04-23T17:18:15;7.37;;;6.30;;
2225;SDS011;1119;48.288;8.726;2023-04-23T17:21:03;12.50;;;9.37;;
2225;SDS011;1119;48.288;8.726;2023-04-23T17:23:51;6.60;;;5.90;;
2225;SDS011;1119;48.288;8.726;2023-04-23T17:26:40;5.77;;;5.30;;
2225;SDS011;1119;48.288;8.726;2023-04-23T17:29:28;11.10;;;9.97;;
2225;SDS011;1119;48.288;8.726;2023-04-23T17:32:16;34.87;;;20.47;;
2225;SDS011;1119;48.288;8.726;2023-04-23T17:35:05;21.00;;;14.60;;
2225;SDS011;1119;48.288;8.726;2023-04-23T17:37:53;35.80;;;22.30;;